sensor_id;sensor_type;location;lat;lon;timestamp;P1;durP1;ratioP1;P2;durP2;ratioP2
40489;SDS011;26196;52.302;10.572;2024-03-22T00:00:57;1.85;;;1.40;;
40489;SDS011;26196;52.302;10.572;2024-03-22T00:04:58;3.00;;;1.75;;
40489;SDS011;26196;52.302;10.572;2024-03-22T00:08:58;2.53;;;1.83;;
40489;SDS011;26196;52.302;10.572;2024-03-22T00:12:59;2.10;;;1.50;;
40489;SDS011;26196;52.302;10.572;2024-03-22T00:17:00;2.03;;;1.50;;
40489;SDS011;26196;52.302;10.572;2024-03-22T00:21:00;1.88;;;1.58;;
40489;SDS011;26196;52.302;10.572;2024-03-22T00:25:02;2.78;;;1.80;;
40489;SDS011;26196;52.302;10.572;2024-03-22T00:29:03;1.77;;;1.33;;
40489;SDS011;26196;52.302;10.572;2024-03-22T00:33:03;3.75;;;1.70;;
40489;SDS011;26196;52.302;10.572;2024-03-22T00:37:04;2.33;;;1.65;;
40489;SDS011;26196;52.302;10.572;2024-03-22T00:41:05;2.00;;;1.60;;
40489;SDS011;26196;52.302;10.572;2024-03-22T00:45:06;3.95;;;1.52;;
40489;SDS011;26196;52.302;10.572;2024-03-22T00:49:07;2.92;;;1.83;;
40489;SDS011;26196;52.302;10.572;2024-03-22T00:53:08;2.13;;;1.90;;
40489;SDS011;26196;52.302;10.572;2024-03-22T00:57:10;2.47;;;1.83;;
40489;SDS011;26196;52.302;10.572;2024-03-22T01:01:10;3.08;;;2.08;;
40489;SDS011;26196;52.302;10.572;2024-03-22T01:05:11;4.97;;;2.67;;
40489;SDS011;26196;52.302;10.572;2024-03-22T01:09:11;2.33;;;1.73;;
40489;SDS011;26196;52.302;10.572;2024-03-22T01:13:12;3.70;;;2.50;;
40489;SDS011;26196;52.302;10.572;2024-03-22T01:17:13;4.50;;;2.70;;
40489;SDS011;26196;52.302;10.572;2024-03-22T01:21:13;3.55;;;2.55;;
40489;SDS011;26196;52.302;10.572;2024-03-22T01:25:14;6.07;;;3.22;;
40489;SDS011;26196;52.302;10.572;2024-03-22T01:29:15;4.55;;;2.80;;
40489;SDS011;26196;52.302;10.572;2024-03-22T01:33:15;4.75;;;3.15;;
40489;SDS011;26196;52.302;10.572;2024-03-22T01:37:16;4.60;;;3.35;;
40489;SDS011;26196;52.302;10.572;2024-03-22T01:41:16;4.60;;;3.47;;
40489;SDS011;26196;52.302;10.572;2024-03-22T01:45:18;3.90;;;3.17;;
40489;SDS011;26196;52.302;10.572;2024-03-22T01:49:18;6.93;;;4.03;;
40489;SDS011;26196;52.302;10.572;2024-03-22T01:53:19;6.15;;;3.78;;
40489;SDS011;26196;52.302;10.572;2024-03-22T01:57:22;7.43;;;4.70;;
40489;SDS011;26196;52.302;10.572;2024-03-22T02:01:23;7.35;;;4.07;;
40489;SDS011;26196;52.302;10.572;2024-03-22T02:05:24;4.32;;;3.60;;
40489;SDS011;26196;52.302;10.572;2024-03-22T02:09:25;6.78;;;4.80;;
40489;SDS011;26196;52.302;10.572;2024-03-22T02:13:26;6.25;;;4.03;;
40489;SDS011;26196;52.302;10.572;2024-03-22T02:17:26;5.10;;;4.10;;
40489;SDS011;26196;52.302;10.572;2024-03-22T02:21:27;7.10;;;4.57;;
40489;SDS011;26196;52.302;10.572;2024-03-22T02:25:27;4.93;;;4.00;;
40489;SDS011;26196;52.302;10.572;2024-03-22T02:29:28;7.07;;;4.07;;
40489;SDS011;26196;52.302;10.572;2024-03-22T02:33:28;5.60;;;3.75;;
40489;SDS011;26196;52.302;10.572;2024-03-22T02:37:30;5.68;;;4.68;;
40489;SDS011;26196;52.302;10.572;2024-03-22T02:41:32;6.60;;;4.28;;
40489;SDS011;26196;52.302;10.572;2024-03-22T02:45:32;6.03;;;3.65;;
40489;SDS011;26196;52.302;10.572;2024-03-22T02:49:33;6.10;;;4.22;;
40489;SDS011;26196;52.302;10.572;2024-03-22T02:53:33;7.22;;;3.80;;
40489;SDS011;26196;52.302;10.572;2024-03-22T02:57:34;6.22;;;3.63;;
40489;SDS011;26196;52.302;10.572;2024-03-22T03:01:34;5.03;;;3.75;;
40489;SDS011;26196;52.302;10.572;2024-03-22T03:05:35;5.85;;;4.45;;
40489;SDS011;26196;52.302;10.572;2024-03-22T03:09:36;5.50;;;3.97;;
40489;SDS011;26196;52.302;10.572;2024-03-22T03:13:36;6.95;;;4.85;;
40489;SDS011;26196;52.302;10.572;2024-03-22T03:17:37;5.78;;;5.05;;
40489;SDS011;26196;52.302;10.572;2024-03-22T03:21:37;5.53;;;4.15;;
40489;SDS011;26196;52.302;10.572;2024-03-22T03:25:38;6.32;;;4.10;;
40489;SDS011;26196;52.302;10.572;2024-03-22T03:29:38;5.53;;;3.72;;
40489;SDS011;26196;52.302;10.572;2024-03-22T03:33:39;5.57;;;3.92;;
40489;SDS011;26196;52.302;10.572;2024-03-22T03:37:39;8.25;;;4.00;;
40489;SDS011;26196;52.302;10.572;2024-03-22T03:41:41;5.82;;;4.10;;
40489;SDS011;26196;52.302;10.572;2024-03-22T03:45:41;5.72;;;4.13;;
40489;SDS011;26196;52.302;10.572;2024-03-22T03:49:42;5.55;;;4.03;;
40489;SDS011;26196;52.302;10.572;2024-03-22T03:53:45;5.45;;;4.13;;
40489;SDS011;26196;52.302;10.572;2024-03-22T03:57:45;5.63;;;3.63;;
40489;SDS011;26196;52.302;10.572;2024-03-22T04:01:46;5.55;;;4.03;;
40489;SDS011;26196;52.302;10.572;2024-03-22T04:05:46;5.55;;;4.30;;
40489;SDS011;26196;52.302;10.572;2024-03-22T04:09:47;6.45;;;4.28;;
40489;SDS011;26196;52.302;10.572;2024-03-22T04:13:47;5.43;;;4.53;;
40489;SDS011;26196;52.302;10.572;2024-03-22T04:17:48;5.15;;;3.85;;
40489;SDS011;26196;52.302;10.572;2024-03-22T04:21:49;5.97;;;4.50;;
40489;SDS011;26196;52.302;10.572;2024-03-22T04:25:57;7.68;;;4.95;;
40489;SDS011;26196;52.302;10.572;2024-03-22T04:29:59;5.90;;;4.18;;
40489;SDS011;26196;52.302;10.572;2024-03-22T04:34:00;5.47;;;3.90;;
40489;SDS011;26196;52.302;10.572;2024-03-22T04:38:02;5.90;;;4.97;;
40489;SDS011;26196;52.302;10.572;2024-03-22T04:42:03;6.57;;;5.00;;
40489;SDS011;26196;52.302;10.572;2024-03-22T04:46:04;6.57;;;4.93;;
40489;SDS011;26196;52.302;10.572;2024-03-22T04:50:04;6.75;;;4.53;;
40489;SDS011;26196;52.302;10.572;2024-03-22T04:54:06;4.82;;;3.83;;
40489;SDS011;26196;52.302;10.572;2024-03-22T04:58:06;6.72;;;4.60;;
40489;SDS011;26196;52.302;10.572;2024-03-22T05:02:07;6.70;;;4.40;;
40489;SDS011;26196;52.302;10.572;2024-03-22T05:06:07;7.82;;;4.85;;
40489;SDS011;26196;52.302;10.572;2024-03-22T05:10:08;6.53;;;3.97;;
40489;SDS011;26196;52.302;10.572;2024-03-22T05:14:09;4.82;;;3.80;;
40489;SDS011;26196;52.302;10.572;2024-03-22T05:18:10;5.60;;;4.45;;
40489;SDS011;26196;52.302;10.572;2024-03-22T05:22:10;5.82;;;4.00;;
40489;SDS011;26196;52.302;10.572;2024-03-22T05:26:11;5.40;;;4.10;;
40489;SDS011;26196;52.302;10.572;2024-03-22T05:30:12;5.82;;;4.05;;
40489;SDS011;26196;52.302;10.572;2024-03-22T05:34:14;5.30;;;3.85;;
40489;SDS011;26196;52.302;10.572;2024-03-22T05:38:17;5.85;;;4.10;;
40489;SDS011;26196;52.302;10.572;2024-03-22T05:42:18;7.60;;;4.03;;
40489;SDS011;26196;52.302;10.572;2024-03-22T05:46:18;13.15;;;6.85;;
40489;SDS011;26196;52.302;10.572;2024-03-22T05:50:19;17.20;;;6.47;;
40489;SDS011;26196;52.302;10.572;2024-03-22T05:54:20;9.20;;;5.03;;
40489;SDS011;26196;52.302;10.572;2024-03-22T05:58:21;9.90;;;5.03;;
40489;SDS011;26196;52.302;10.572;2024-03-22T06:02:22;11.50;;;4.78;;
40489;SDS011;26196;52.302;10.572;2024-03-22T06:06:23;11.35;;;5.18;;
40489;SDS011;26196;52.302;10.572;2024-03-22T06:10:26;10.07;;;5.05;;
40489;SDS011;26196;52.302;10.572;2024-03-22T06:14:26;8.43;;;5.40;;
40489;SDS011;26196;52.302;10.572;2024-03-22T06:18:27;7.95;;;4.82;;
40489;SDS011;26196;52.302;10.572;2024-03-22T06:22:27;10.35;;;5.63;;
40489;SDS011;26196;52.302;10.572;2024-03-22T06:26:28;9.38;;;5.63;;
40489;SDS011;26196;52.302;10.572;2024-03-22T06:30:28;8.15;;;5.40;;
40489;SDS011;26196;52.302;10.572;2024-03-22T06:34:29;8.38;;;4.97;;
40489;SDS011;26196;52.302;10.572;2024-03-22T06:38:30;7.25;;;4.35;;
40489;SDS011;26196;52.302;10.572;2024-03-22T06:42:30;10.45;;;5.38;;
40489;SDS011;26196;52.302;10.572;2024-03-22T06:46:31;10.05;;;4.90;;
40489;SDS011;26196;52.302;10.572;2024-03-22T06:50:32;9.45;;;5.13;;
40489;SDS011;26196;52.302;10.572;2024-03-22T06:54:32;9.73;;;5.43;;
40489;SDS011;26196;52.302;10.572;2024-03-22T06:58:33;9.88;;;5.07;;
40489;SDS011;26196;52.302;10.572;2024-03-22T07:02:33;11.48;;;5.07;;
40489;SDS011;26196;52.302;10.572;2024-03-22T07:06:34;9.23;;;4.90;;
40489;SDS011;26196;52.302;10.572;2024-03-22T07:10:38;8.95;;;5.97;;
40489;SDS011;26196;52.302;10.572;2024-03-22T07:14:39;8.75;;;4.82;;
40489;SDS011;26196;52.302;10.572;2024-03-22T07:18:40;7.80;;;4.80;;
40489;SDS011;26196;52.302;10.572;2024-03-22T07:22:40;6.57;;;4.82;;
40489;SDS011;26196;52.302;10.572;2024-03-22T07:26:41;7.10;;;4.75;;
40489;SDS011;26196;52.302;10.572;2024-03-22T07:30:42;7.82;;;4.57;;
40489;SDS011;26196;52.302;10.572;2024-03-22T07:34:45;7.50;;;3.90;;
40489;SDS011;26196;52.302;10.572;2024-03-22T07:38:46;7.28;;;4.50;;
40489;SDS011;26196;52.302;10.572;2024-03-22T07:42:49;6.85;;;4.13;;
40489;SDS011;26196;52.302;10.572;2024-03-22T07:46:49;7.22;;;4.88;;
40489;SDS011;26196;52.302;10.572;2024-03-22T07:50:57;7.15;;;4.78;;
40489;SDS011;26196;52.302;10.572;2024-03-22T07:54:58;6.85;;;4.50;;
40489;SDS011;26196;52.302;10.572;2024-03-22T07:58:59;5.97;;;4.43;;
40489;SDS011;26196;52.302;10.572;2024-03-22T08:03:00;9.55;;;4.95;;
40489;SDS011;26196;52.302;10.572;2024-03-22T08:07:00;7.68;;;4.53;;
40489;SDS011;26196;52.302;10.572;2024-03-22T08:11:01;5.90;;;3.97;;
40489;SDS011;26196;52.302;10.572;2024-03-22T08:15:01;7.75;;;4.10;;
40489;SDS011;26196;52.302;10.572;2024-03-22T08:19:03;6.22;;;4.40;;
40489;SDS011;26196;52.302;10.572;2024-03-22T08:23:03;5.53;;;4.10;;
40489;SDS011;26196;52.302;10.572;2024-03-22T08:27:04;6.57;;;3.65;;
40489;SDS011;26196;52.302;10.572;2024-03-22T08:31:05;6.68;;;3.83;;
40489;SDS011;26196;52.302;10.572;2024-03-22T08:35:06;5.93;;;3.72;;
40489;SDS011;26196;52.302;10.572;2024-03-22T08:39:06;6.95;;;4.30;;
40489;SDS011;26196;52.302;10.572;2024-03-22T08:43:10;4.22;;;3.13;;
40489;SDS011;26196;52.302;10.572;2024-03-22T08:47:11;5.43;;;3.35;;
40489;SDS011;26196;52.302;10.572;2024-03-22T08:51:12;5.82;;;4.18;;
40489;SDS011;26196;52.302;10.572;2024-03-22T08:55:12;5.40;;;3.58;;
40489;SDS011;26196;52.302;10.572;2024-03-22T08:59:13;7.05;;;4.07;;
40489;SDS011;26196;52.302;10.572;2024-03-22T09:03:14;4.63;;;3.53;;
40489;SDS011;26196;52.302;10.572;2024-03-22T09:07:15;6.57;;;4.20;;
40489;SDS011;26196;52.302;10.572;2024-03-22T09:11:15;6.95;;;3.85;;
40489;SDS011;26196;52.302;10.572;2024-03-22T09:15:16;5.47;;;3.67;;
40489;SDS011;26196;52.302;10.572;2024-03-22T09:19:16;4.30;;;3.28;;
40489;SDS011;26196;52.302;10.572;2024-03-22T09:23:17;5.38;;;3.35;;
40489;SDS011;26196;52.302;10.572;2024-03-22T09:27:17;5.45;;;3.70;;
40489;SDS011;26196;52.302;10.572;2024-03-22T09:31:18;6.68;;;4.03;;
40489;SDS011;26196;52.302;10.572;2024-03-22T09:35:20;5.80;;;4.13;;
40489;SDS011;26196;52.302;10.572;2024-03-22T09:39:21;6.22;;;3.30;;
40489;SDS011;26196;52.302;10.572;2024-03-22T09:43:21;5.63;;;3.40;;
40489;SDS011;26196;52.302;10.572;2024-03-22T09:47:22;5.90;;;3.65;;
40489;SDS011;26196;52.302;10.572;2024-03-22T09:51:25;5.05;;;2.85;;
40489;SDS011;26196;52.302;10.572;2024-03-22T09:55:27;5.15;;;3.55;;
40489;SDS011;26196;52.302;10.572;2024-03-22T09:59:29;5.13;;;3.42;;
40489;SDS011;26196;52.302;10.572;2024-03-22T10:03:29;8.63;;;4.60;;
40489;SDS011;26196;52.302;10.572;2024-03-22T10:07:30;7.50;;;4.22;;
40489;SDS011;26196;52.302;10.572;2024-03-22T10:11:31;7.22;;;3.95;;
40489;SDS011;26196;52.302;10.572;2024-03-22T10:15:32;6.18;;;3.65;;
40489;SDS011;26196;52.302;10.572;2024-03-22T10:19:32;4.68;;;3.25;;
40489;SDS011;26196;52.302;10.572;2024-03-22T10:23:33;8.57;;;3.75;;
40489;SDS011;26196;52.302;10.572;2024-03-22T10:27:34;6.47;;;3.17;;
40489;SDS011;26196;52.302;10.572;2024-03-22T10:31:35;4.75;;;3.08;;
40489;SDS011;26196;52.302;10.572;2024-03-22T10:35:36;4.53;;;3.17;;
40489;SDS011;26196;52.302;10.572;2024-03-22T10:39:36;5.75;;;3.85;;
40489;SDS011;26196;52.302;10.572;2024-03-22T10:43:39;4.32;;;3.10;;
40489;SDS011;26196;52.302;10.572;2024-03-22T10:47:39;5.63;;;3.22;;
40489;SDS011;26196;52.302;10.572;2024-03-22T10:51:40;5.15;;;3.17;;
40489;SDS011;26196;52.302;10.572;2024-03-22T10:55:43;5.65;;;3.28;;
40489;SDS011;26196;52.302;10.572;2024-03-22T10:59:46;4.13;;;2.47;;
40489;SDS011;26196;52.302;10.572;2024-03-22T11:03:47;5.28;;;3.45;;
40489;SDS011;26196;52.302;10.572;2024-03-22T11:07:57;6.18;;;3.38;;
40489;SDS011;26196;52.302;10.572;2024-03-22T11:11:59;3.33;;;2.30;;
40489;SDS011;26196;52.302;10.572;2024-03-22T11:16:00;3.92;;;2.60;;
40489;SDS011;26196;52.302;10.572;2024-03-22T11:20:01;4.63;;;2.95;;
40489;SDS011;26196;52.302;10.572;2024-03-22T11:24:01;5.38;;;2.42;;
40489;SDS011;26196;52.302;10.572;2024-03-22T11:28:02;4.40;;;2.60;;
40489;SDS011;26196;52.302;10.572;2024-03-22T11:32:03;6.38;;;2.97;;
40489;SDS011;26196;52.302;10.572;2024-03-22T11:36:04;4.05;;;2.60;;
40489;SDS011;26196;52.302;10.572;2024-03-22T11:40:05;4.60;;;3.20;;
40489;SDS011;26196;52.302;10.572;2024-03-22T11:44:06;6.20;;;3.78;;
40489;SDS011;26196;52.302;10.572;2024-03-22T11:48:07;5.47;;;3.92;;
40489;SDS011;26196;52.302;10.572;2024-03-22T11:52:08;6.68;;;3.63;;
40489;SDS011;26196;52.302;10.572;2024-03-22T11:56:08;5.88;;;3.72;;
40489;SDS011;26196;52.302;10.572;2024-03-22T12:00:09;5.13;;;3.70;;
40489;SDS011;26196;52.302;10.572;2024-03-22T12:04:12;6.55;;;3.85;;
40489;SDS011;26196;52.302;10.572;2024-03-22T12:08:18;5.82;;;2.90;;
40489;SDS011;26196;52.302;10.572;2024-03-22T12:12:27;5.03;;;3.05;;
40489;SDS011;26196;52.302;10.572;2024-03-22T12:16:28;6.95;;;3.55;;
40489;SDS011;26196;52.302;10.572;2024-03-22T12:20:29;7.72;;;3.67;;
40489;SDS011;26196;52.302;10.572;2024-03-22T12:24:29;4.03;;;3.10;;
40489;SDS011;26196;52.302;10.572;2024-03-22T12:28:30;5.60;;;3.63;;
40489;SDS011;26196;52.302;10.572;2024-03-22T12:32:31;5.78;;;3.55;;
40489;SDS011;26196;52.302;10.572;2024-03-22T12:36:32;4.75;;;2.60;;
40489;SDS011;26196;52.302;10.572;2024-03-22T12:40:32;5.88;;;3.15;;
40489;SDS011;26196;52.302;10.572;2024-03-22T12:44:34;5.82;;;2.83;;
40489;SDS011;26196;52.302;10.572;2024-03-22T12:48:34;5.13;;;3.15;;
40489;SDS011;26196;52.302;10.572;2024-03-22T12:52:35;5.20;;;2.75;;
40489;SDS011;26196;52.302;10.572;2024-03-22T12:56:35;9.50;;;4.10;;
40489;SDS011;26196;52.302;10.572;2024-03-22T13:00:39;7.07;;;3.72;;
40489;SDS011;26196;52.302;10.572;2024-03-22T13:04:40;5.22;;;2.60;;
40489;SDS011;26196;52.302;10.572;2024-03-22T13:08:40;5.95;;;2.85;;
40489;SDS011;26196;52.302;10.572;2024-03-22T13:12:41;9.15;;;3.00;;
40489;SDS011;26196;52.302;10.572;2024-03-22T13:16:42;10.43;;;3.53;;
40489;SDS011;26196;52.302;10.572;2024-03-22T13:20:43;5.80;;;3.17;;
40489;SDS011;26196;52.302;10.572;2024-03-22T13:24:47;6.50;;;3.90;;
40489;SDS011;26196;52.302;10.572;2024-03-22T13:28:50;9.38;;;4.60;;
40489;SDS011;26196;52.302;10.572;2024-03-22T13:32:52;9.45;;;5.45;;
40489;SDS011;26196;52.302;10.572;2024-03-22T13:36:53;17.23;;;7.15;;
40489;SDS011;26196;52.302;10.572;2024-03-22T13:40:57;23.45;;;9.65;;
40489;SDS011;26196;52.302;10.572;2024-03-22T13:44:58;20.55;;;8.60;;
40489;SDS011;26196;52.302;10.572;2024-03-22T13:48:59;18.88;;;8.70;;
40489;SDS011;26196;52.302;10.572;2024-03-22T13:53:00;17.08;;;7.85;;
40489;SDS011;26196;52.302;10.572;2024-03-22T13:57:00;21.60;;;8.10;;
40489;SDS011;26196;52.302;10.572;2024-03-22T14:01:01;14.13;;;5.85;;
40489;SDS011;26196;52.302;10.572;2024-03-22T14:05:03;15.52;;;5.80;;
40489;SDS011;26196;52.302;10.572;2024-03-22T14:09:04;10.40;;;6.05;;
40489;SDS011;26196;52.302;10.572;2024-03-22T14:13:05;8.32;;;4.75;;
40489;SDS011;26196;52.302;10.572;2024-03-22T14:17:08;7.00;;;4.95;;
40489;SDS011;26196;52.302;10.572;2024-03-22T14:21:08;6.63;;;4.30;;
40489;SDS011;26196;52.302;10.572;2024-03-22T14:25:09;7.18;;;4.55;;
40489;SDS011;26196;52.302;10.572;2024-03-22T14:29:13;5.13;;;3.72;;
40489;SDS011;26196;52.302;10.572;2024-03-22T14:33:14;8.18;;;4.47;;
40489;SDS011;26196;52.302;10.572;2024-03-22T14:37:15;6.45;;;4.25;;
40489;SDS011;26196;52.302;10.572;2024-03-22T14:41:15;6.75;;;3.80;;
40489;SDS011;26196;52.302;10.572;2024-03-22T14:45:16;6.72;;;4.40;;
40489;SDS011;26196;52.302;10.572;2024-03-22T14:49:21;8.35;;;4.63;;
40489;SDS011;26196;52.302;10.572;2024-03-22T14:53:22;7.10;;;4.78;;
40489;SDS011;26196;52.302;10.572;2024-03-22T14:57:23;7.85;;;5.25;;
40489;SDS011;26196;52.302;10.572;2024-03-22T15:01:25;6.00;;;4.05;;
40489;SDS011;26196;52.302;10.572;2024-03-22T15:05:27;5.75;;;4.43;;
40489;SDS011;26196;52.302;10.572;2024-03-22T15:09:27;7.57;;;4.95;;
40489;SDS011;26196;52.302;10.572;2024-03-22T15:13:28;7.47;;;4.18;;
40489;SDS011;26196;52.302;10.572;2024-03-22T15:17:29;5.82;;;3.50;;
40489;SDS011;26196;52.302;10.572;2024-03-22T15:21:30;6.97;;;4.80;;
40489;SDS011;26196;52.302;10.572;2024-03-22T15:25:31;6.13;;;4.68;;
40489;SDS011;26196;52.302;10.572;2024-03-22T15:29:32;8.77;;;5.88;;
40489;SDS011;26196;52.302;10.572;2024-03-22T15:33:33;7.78;;;5.57;;
40489;SDS011;26196;52.302;10.572;2024-03-22T15:37:34;7.43;;;5.38;;
40489;SDS011;26196;52.302;10.572;2024-03-22T15:41:35;9.65;;;5.85;;
40489;SDS011;26196;52.302;10.572;2024-03-22T15:45:36;8.45;;;6.20;;
40489;SDS011;26196;52.302;10.572;2024-03-22T15:49:38;9.50;;;6.03;;
40489;SDS011;26196;52.302;10.572;2024-03-22T15:53:39;12.55;;;6.93;;
40489;SDS011;26196;52.302;10.572;2024-03-22T15:57:39;10.40;;;6.88;;
40489;SDS011;26196;52.302;10.572;2024-03-22T16:01:40;10.73;;;7.30;;
40489;SDS011;26196;52.302;10.572;2024-03-22T16:05:50;11.70;;;8.15;;
40489;SDS011;26196;52.302;10.572;2024-03-22T16:09:51;10.90;;;7.35;;
40489;SDS011;26196;52.302;10.572;2024-03-22T16:13:52;12.32;;;8.68;;
40489;SDS011;26196;52.302;10.572;2024-03-22T16:17:53;14.45;;;8.95;;
40489;SDS011;26196;52.302;10.572;2024-03-22T16:21:55;28.83;;;15.38;;
40489;SDS011;26196;52.302;10.572;2024-03-22T16:25:55;25.13;;;15.23;;
40489;SDS011;26196;52.302;10.572;2024-03-22T16:29:56;24.60;;;13.32;;
40489;SDS011;26196;52.302;10.572;2024-03-22T16:33:56;24.25;;;12.75;;
40489;SDS011;26196;52.302;10.572;2024-03-22T16:37:57;19.08;;;11.07;;
40489;SDS011;26196;52.302;10.572;2024-03-22T16:41:58;17.67;;;10.40;;
40489;SDS011;26196;52.302;10.572;2024-03-22T16:45:59;20.50;;;11.05;;
40489;SDS011;26196;52.302;10.572;2024-03-22T16:49:59;16.52;;;10.00;;
40489;SDS011;26196;52.302;10.572;2024-03-22T16:54:00;15.10;;;8.43;;
40489;SDS011;26196;52.302;10.572;2024-03-22T16:58:00;10.43;;;7.10;;
40489;SDS011;26196;52.302;10.572;2024-03-22T17:02:03;11.10;;;7.07;;
40489;SDS011;26196;52.302;10.572;2024-03-22T17:06:04;10.02;;;6.35;;
40489;SDS011;26196;52.302;10.572;2024-03-22T17:10:05;9.88;;;6.85;;
40489;SDS011;26196;52.302;10.572;2024-03-22T17:14:06;9.02;;;5.28;;
40489;SDS011;26196;52.302;10.572;2024-03-22T17:18:06;7.55;;;5.72;;
40489;SDS011;26196;52.302;10.572;2024-03-22T17:22:07;9.05;;;5.95;;
40489;SDS011;26196;52.302;10.572;2024-03-22T17:26:08;7.07;;;5.25;;
40489;SDS011;26196;52.302;10.572;2024-03-22T17:30:08;7.75;;;5.82;;
40489;SDS011;26196;52.302;10.572;2024-03-22T17:34:09;9.32;;;6.20;;
40489;SDS011;26196;52.302;10.572;2024-03-22T17:38:10;8.32;;;5.47;;
40489;SDS011;26196;52.302;10.572;2024-03-22T17:42:11;6.95;;;5.03;;
40489;SDS011;26196;52.302;10.572;2024-03-22T17:46:11;7.18;;;5.10;;
40489;SDS011;26196;52.302;10.572;2024-03-22T17:50:12;7.05;;;5.28;;
40489;SDS011;26196;52.302;10.572;2024-03-22T17:54:13;5.53;;;4.30;;
40489;SDS011;26196;52.302;10.572;2024-03-22T17:58:13;5.10;;;4.60;;
40489;SDS011;26196;52.302;10.572;2024-03-22T18:02:14;5.65;;;4.53;;
40489;SDS011;26196;52.302;10.572;2024-03-22T18:06:15;5.28;;;4.05;;
40489;SDS011;26196;52.302;10.572;2024-03-22T18:10:15;5.75;;;4.32;;
40489;SDS011;26196;52.302;10.572;2024-03-22T18:14:16;5.53;;;3.83;;
40489;SDS011;26196;52.302;10.572;2024-03-22T18:18:19;5.07;;;3.80;;
40489;SDS011;26196;52.302;10.572;2024-03-22T18:22:19;6.38;;;4.35;;
40489;SDS011;26196;52.302;10.572;2024-03-22T18:26:20;6.75;;;4.88;;
40489;SDS011;26196;52.302;10.572;2024-03-22T18:30:20;5.78;;;4.35;;
40489;SDS011;26196;52.302;10.572;2024-03-22T18:34:21;7.53;;;4.95;;
40489;SDS011;26196;52.302;10.572;2024-03-22T18:38:21;7.03;;;4.72;;
40489;SDS011;26196;52.302;10.572;2024-03-22T18:42:22;6.05;;;4.82;;
40489;SDS011;26196;52.302;10.572;2024-03-22T18:46:23;5.18;;;4.10;;
40489;SDS011;26196;52.302;10.572;2024-03-22T18:50:23;5.50;;;4.38;;
40489;SDS011;26196;52.302;10.572;2024-03-22T18:54:26;4.70;;;4.20;;
40489;SDS011;26196;52.302;10.572;2024-03-22T18:58:27;5.63;;;3.83;;
40489;SDS011;26196;52.302;10.572;2024-03-22T19:02:28;6.10;;;4.40;;
40489;SDS011;26196;52.302;10.572;2024-03-22T19:06:28;4.82;;;4.05;;
40489;SDS011;26196;52.302;10.572;2024-03-22T19:10:30;6.30;;;3.92;;
40489;SDS011;26196;52.302;10.572;2024-03-22T19:14:30;6.28;;;4.90;;
40489;SDS011;26196;52.302;10.572;2024-03-22T19:18:31;4.95;;;3.70;;
40489;SDS011;26196;52.302;10.572;2024-03-22T19:22:32;3.80;;;3.30;;
40489;SDS011;26196;52.302;10.572;2024-03-22T19:26:33;4.93;;;4.07;;
40489;SDS011;26196;52.302;10.572;2024-03-22T19:30:37;4.97;;;4.05;;
40489;SDS011;26196;52.302;10.572;2024-03-22T19:34:38;3.88;;;3.47;;
40489;SDS011;26196;52.302;10.572;2024-03-22T19:38:39;4.88;;;3.97;;
40489;SDS011;26196;52.302;10.572;2024-03-22T19:42:40;4.78;;;4.25;;
40489;SDS011;26196;52.302;10.572;2024-03-22T19:46:40;6.50;;;4.63;;
40489;SDS011;26196;52.302;10.572;2024-03-22T19:50:41;7.05;;;3.85;;
40489;SDS011;26196;52.302;10.572;2024-03-22T19:54:41;4.07;;;3.05;;
40489;SDS011;26196;52.302;10.572;2024-03-22T19:58:42;2.97;;;2.10;;
40489;SDS011;26196;52.302;10.572;2024-03-22T20:02:43;3.45;;;2.05;;
40489;SDS011;26196;52.302;10.572;2024-03-22T20:06:43;1.92;;;1.40;;
40489;SDS011;26196;52.302;10.572;2024-03-22T20:10:45;4.05;;;1.60;;
40489;SDS011;26196;52.302;10.572;2024-03-22T20:14:46;2.75;;;1.60;;
40489;SDS011;26196;52.302;10.572;2024-03-22T20:18:46;2.70;;;1.67;;
40489;SDS011;26196;52.302;10.572;2024-03-22T20:22:47;2.10;;;1.45;;
40489;SDS011;26196;52.302;10.572;2024-03-22T20:26:47;4.22;;;1.58;;
40489;SDS011;26196;52.302;10.572;2024-03-22T20:30:48;1.88;;;1.40;;
40489;SDS011;26196;52.302;10.572;2024-03-22T20:34:49;5.28;;;2.45;;
